Time;durP1;ratioP1;P1;durP2;ratioP2;P2;SDS_P1;SDS_P2;PMS_P1;PMS_P2;Temp;Humidity;BMP_temperature;BMP_pressure;BME280_temperature;BME280_humidity;BME280_pressure;Samples;Min_cycle;Max_cycle;Signal;HPM_P1;HPM_P2
2023/05/18 00:02:25;;;;;;;7.43;2.80;;;;;;;;;;5098582;28;20101;-68
2023/05/18 00:04:51;;;;;;;7.22;3.42;;;;;;;;;;5098865;28;20078;-67
2023/05/18 00:07:17;;;;;;;9.80;3.78;;;;;;;;;;5101990;28;20089;-66
2023/05/18 00:09:43;;;;;;;10.38;3.40;;;;;;;;;;5107113;28;20544;-66
2023/05/18 00:12:09;;;;;;;8.10;3.97;;;;;;;;;;5098557;28;20119;-69
2023/05/18 00:14:36;;;;;;;9.00;3.90;;;;;;;;;;5100996;28;20028;-67
2023/05/18 00:17:02;;;;;;;8.45;3.75;;;;;;;;;;5101640;28;20035;-68
2023/05/18 00:19:28;;;;;;;12.52;3.95;;;;;;;;;;5101151;28;20044;-68
2023/05/18 00:21:55;;;;;;;12.80;4.00;;;;;;;;;;5093174;28;20060;-68
2023/05/18 00:24:22;;;;;;;11.70;4.53;;;;;;;;;;5101151;28;20457;-68
2023/05/18 00:26:48;;;;;;;6.28;2.50;;;;;;;;;;5103472;28;20096;-68
2023/05/18 00:29:15;;;;;;;11.18;3.67;;;;;;;;;;5095050;28;20383;-68
2023/05/18 00:31:43;;;;;;;4.50;2.28;;;;;;;;;;5096574;28;20032;-68
2023/05/18 00:34:10;;;;;;;5.85;2.88;;;;;;;;;;5101505;28;20044;-69
2023/05/18 00:36:37;;;;;;;6.38;2.83;;;;;;;;;;5104779;28;20158;-70
2023/05/18 00:39:03;;;;;;;9.00;2.90;;;;;;;;;;5095416;28;20050;-69
2023/05/18 00:41:30;;;;;;;6.70;2.85;;;;;;;;;;5097386;28;20032;-69
2023/05/18 00:43:56;;;;;;;6.50;2.78;;;;;;;;;;5105399;28;20043;-69
2023/05/18 00:46:23;;;;;;;6.43;3.08;;;;;;;;;;5102915;28;20043;-69
2023/05/18 00:48:50;;;;;;;13.18;3.42;;;;;;;;;;5094511;28;20028;-70
2023/05/18 00:51:17;;;;;;;6.28;3.13;;;;;;;;;;5100172;28;20036;-69
2023/05/18 00:53:43;;;;;;;6.43;2.30;;;;;;;;;;5103045;28;20089;-70
2023/05/18 00:56:11;;;;;;;5.53;2.33;;;;;;;;;;5092481;28;20046;-69
2023/05/18 00:58:38;;;;;;;8.05;2.50;;;;;;;;;;5093467;28;20032;-70
2023/05/18 01:01:04;;;;;;;9.25;2.92;;;;;;;;;;5103257;28;20416;-70
2023/05/18 01:03:33;;;;;;;7.43;3.25;;;;;;;;;;5105005;28;20043;-69
2023/05/18 01:05:59;;;;;;;7.00;3.13;;;;;;;;;;5092108;28;20084;-69
2023/05/18 01:08:26;;;;;;;10.23;2.97;;;;;;;;;;5099995;28;20042;-69
2023/05/18 01:11:07;;;;;;;7.10;2.70;;;;;;;;;;5104250;28;20087;-69
2023/05/18 01:13:49;;;;;;;7.55;2.72;;;;;;;;;;5100907;28;20052;-69
2023/05/18 01:16:18;;;;;;;5.05;2.33;;;;;;;;;;5095887;28;20044;-69
2023/05/18 01:18:54;;;;;;;7.65;3.42;;;;;;;;;;5105018;28;20370;-70
2023/05/18 01:21:42;;;;;;;3.88;2.45;;;;;;;;;;5103567;28;20055;-69
2023/05/18 01:24:18;;;;;;;5.35;2.63;;;;;;;;;;5097400;28;20438;-69
2023/05/18 01:26:46;;;;;;;8.40;3.28;;;;;;;;;;5091317;28;20048;-69
2023/05/18 01:29:13;;;;;;;5.25;2.83;;;;;;;;;;5105712;28;20039;-69
2023/05/18 01:31:39;;;;;;;8.80;2.60;;;;;;;;;;5101666;28;20074;-69
2023/05/18 01:34:05;;;;;;;5.18;2.58;;;;;;;;;;5088555;28;20173;-69
2023/05/18 01:36:32;;;;;;;5.43;2.55;;;;;;;;;;5101381;28;20097;-70
2023/05/18 01:39:00;;;;;;;8.05;2.85;;;;;;;;;;5101555;28;20039;-69
2023/05/18 01:41:28;;;;;;;3.78;2.80;;;;;;;;;;5109008;28;20483;-70
2023/05/18 01:44:03;;;;;;;8.65;3.20;;;;;;;;;;5099376;28;20046;-70
2023/05/18 01:46:32;;;;;;;6.32;2.80;;;;;;;;;;5108412;28;20040;-69
2023/05/18 01:49:03;;;;;;;4.97;2.67;;;;;;;;;;5104015;28;20040;-69
2023/05/18 01:51:33;;;;;;;7.32;3.47;;;;;;;;;;5101686;28;20508;-69
2023/05/18 01:54:02;;;;;;;6.47;3.47;;;;;;;;;;5094955;28;20028;-70
2023/05/18 01:56:29;;;;;;;14.38;3.85;;;;;;;;;;5108883;28;20036;-69
2023/05/18 01:58:57;;;;;;;5.72;3.25;;;;;;;;;;5101720;28;20097;-68
2023/05/18 02:01:23;;;;;;;9.98;3.22;;;;;;;;;;5099767;28;20515;-69
2023/05/18 02:03:50;;;;;;;5.25;3.72;;;;;;;;;;5102210;28;20047;-70
2023/05/18 02:06:16;;;;;;;8.02;4.32;;;;;;;;;;5107514;28;20442;-69
2023/05/18 02:08:43;;;;;;;5.82;3.60;;;;;;;;;;5103604;28;20038;-69
2023/05/18 02:11:09;;;;;;;5.60;3.13;;;;;;;;;;5106676;28;20401;-69
2023/05/18 02:13:35;;;;;;;6.68;3.70;;;;;;;;;;5103900;28;20081;-69
2023/05/18 02:16:05;;;;;;;6.43;3.75;;;;;;;;;;5104715;27;20067;-69
2023/05/18 02:18:33;;;;;;;6.53;3.60;;;;;;;;;;5106642;27;20127;-69
2023/05/18 02:20:59;;;;;;;6.25;3.40;;;;;;;;;;5100085;28;20083;-68
2023/05/18 02:23:26;;;;;;;7.35;4.15;;;;;;;;;;5110359;28;20050;-69
2023/05/18 02:25:55;;;;;;;9.35;4.25;;;;;;;;;;5104617;28;20380;-68
2023/05/18 02:28:21;;;;;;;13.30;4.18;;;;;;;;;;5104487;28;20048;-68
2023/05/18 02:30:47;;;;;;;8.30;3.63;;;;;;;;;;5105065;28;20028;-68
2023/05/18 02:33:14;;;;;;;7.72;4.93;;;;;;;;;;5104539;28;20477;-68
2023/05/18 02:35:40;;;;;;;6.45;3.85;;;;;;;;;;5107427;28;20435;-68
2023/05/18 02:38:06;;;;;;;6.72;3.67;;;;;;;;;;5108484;28;20075;-68
2023/05/18 02:40:32;;;;;;;9.05;4.78;;;;;;;;;;5097772;28;20036;-69
2023/05/18 02:42:58;;;;;;;8.68;3.92;;;;;;;;;;5099574;28;20039;-68
2023/05/18 02:45:24;;;;;;;8.65;3.72;;;;;;;;;;5107895;28;20049;-68
2023/05/18 02:47:50;;;;;;;6.85;3.97;;;;;;;;;;5097675;28;20454;-68
2023/05/18 02:50:17;;;;;;;10.25;4.13;;;;;;;;;;5101108;28;20083;-68
2023/05/18 02:52:44;;;;;;;8.05;4.35;;;;;;;;;;5106528;28;20093;-68
2023/05/18 02:55:12;;;;;;;6.75;4.38;;;;;;;;;;5109019;27;20415;-68
2023/05/18 02:57:38;;;;;;;5.05;3.25;;;;;;;;;;5097685;28;20068;-68
2023/05/18 03:00:11;;;;;;;5.60;3.83;;;;;;;;;;5101858;28;20077;-68
2023/05/18 03:02:37;;;;;;;6.30;3.45;;;;;;;;;;5105569;28;20115;-69
2023/05/18 03:05:04;;;;;;;8.30;3.80;;;;;;;;;;5106364;28;20394;-68
2023/05/18 03:07:31;;;;;;;6.75;3.40;;;;;;;;;;5099019;28;20158;-68
2023/05/18 03:09:58;;;;;;;10.93;4.80;;;;;;;;;;5104772;28;20043;-68
2023/05/18 03:12:24;;;;;;;7.82;4.38;;;;;;;;;;5102754;28;20028;-68
2023/05/18 03:14:50;;;;;;;8.32;3.90;;;;;;;;;;5100140;28;20036;-68
2023/05/18 03:17:16;;;;;;;6.97;4.05;;;;;;;;;;5097915;28;20088;-68
2023/05/18 03:19:42;;;;;;;7.97;4.43;;;;;;;;;;5105115;28;20119;-68
2023/05/18 03:22:08;;;;;;;10.07;4.45;;;;;;;;;;5106722;28;20504;-68
2023/05/18 03:24:39;;;;;;;6.03;3.67;;;;;;;;;;5100362;28;20485;-68
2023/05/18 03:27:06;;;;;;;7.95;4.20;;;;;;;;;;5096813;28;20373;-68
2023/05/18 03:29:33;;;;;;;6.22;3.58;;;;;;;;;;5106272;28;20040;-68
2023/05/18 03:31:59;;;;;;;6.72;3.95;;;;;;;;;;5102767;28;20028;-68
2023/05/18 03:34:25;;;;;;;8.20;3.88;;;;;;;;;;5091583;28;20047;-68
2023/05/18 03:36:53;;;;;;;8.07;4.15;;;;;;;;;;5099700;28;20047;-68
2023/05/18 03:39:20;;;;;;;6.20;4.32;;;;;;;;;;5102921;28;20428;-68
2023/05/18 03:41:46;;;;;;;5.57;3.67;;;;;;;;;;5103062;28;20040;-69
2023/05/18 03:44:12;;;;;;;6.88;3.60;;;;;;;;;;5099429;28;20075;-67
2023/05/18 03:46:38;;;;;;;7.95;4.00;;;;;;;;;;5099767;28;20574;-68
2023/05/18 03:49:06;;;;;;;6.07;3.92;;;;;;;;;;5093976;28;20118;-67
2023/05/18 03:51:32;;;;;;;6.30;3.67;;;;;;;;;;5097523;28;20118;-68
2023/05/18 03:53:59;;;;;;;7.85;3.53;;;;;;;;;;5101221;28;20458;-68
2023/05/18 03:56:25;;;;;;;9.65;4.25;;;;;;;;;;5101964;28;20054;-68
2023/05/18 03:58:51;;;;;;;8.93;3.83;;;;;;;;;;5092074;28;20086;-67
2023/05/18 04:01:18;;;;;;;7.68;4.50;;;;;;;;;;5095694;28;20050;-67
2023/05/18 04:03:44;;;;;;;8.52;3.80;;;;;;;;;;5094551;28;20116;-68
2023/05/18 04:06:10;;;;;;;6.53;3.85;;;;;;;;;;5104407;28;20243;-67
2023/05/18 04:08:37;;;;;;;7.43;4.38;;;;;;;;;;5089391;28;20458;-67
2023/05/18 04:11:03;;;;;;;7.82;4.47;;;;;;;;;;5099125;28;20047;-67
2023/05/18 04:13:29;;;;;;;7.60;4.10;;;;;;;;;;5101670;28;20040;-68
2023/05/18 04:15:57;;;;;;;5.35;4.10;;;;;;;;;;5100722;28;20058;-69
2023/05/18 04:18:23;;;;;;;10.40;4.45;;;;;;;;;;5105957;28;20114;-67
2023/05/18 04:20:49;;;;;;;7.68;4.47;;;;;;;;;;5094104;28;20054;-67
2023/05/18 04:23:16;;;;;;;6.47;4.07;;;;;;;;;;5105011;28;20472;-68
2023/05/18 04:25:42;;;;;;;7.93;4.53;;;;;;;;;;5099523;28;20531;-70
2023/05/18 04:28:08;;;;;;;7.72;4.65;;;;;;;;;;5095175;28;20066;-68
2023/05/18 04:30:36;;;;;;;8.70;4.28;;;;;;;;;;5070876;28;20039;-68
2023/05/18 04:33:03;;;;;;;10.60;4.45;;;;;;;;;;5095234;28;20395;-68
2023/05/18 04:35:30;;;;;;;9.23;4.53;;;;;;;;;;5099862;28;20048;-69
2023/05/18 04:37:56;;;;;;;8.52;3.90;;;;;;;;;;5096810;28;20063;-67
2023/05/18 04:40:24;;;;;;;8.63;3.45;;;;;;;;;;5097019;28;20035;-68
2023/05/18 04:42:50;;;;;;;8.82;4.05;;;;;;;;;;5103102;28;20043;-68
2023/05/18 04:45:20;;;;;;;8.50;3.88;;;;;;;;;;5093944;28;20063;-69
2023/05/18 04:47:51;;;;;;;8.15;3.97;;;;;;;;;;5089860;28;20040;-68
2023/05/18 04:50:18;;;;;;;7.07;3.85;;;;;;;;;;5104715;28;20102;-68
2023/05/18 04:52:48;;;;;;;4.88;3.70;;;;;;;;;;5095015;28;20032;-68
2023/05/18 04:55:27;;;;;;;9.57;3.65;;;;;;;;;;5100790;28;20063;-67
2023/05/18 04:57:55;;;;;;;6.93;3.65;;;;;;;;;;5075325;28;20393;-68
2023/05/18 05:00:23;;;;;;;6.68;3.67;;;;;;;;;;5093260;28;20051;-69
2023/05/18 05:02:50;;;;;;;6.90;3.42;;;;;;;;;;5094989;28;20088;-68
2023/05/18 05:05:17;;;;;;;6.15;2.95;;;;;;;;;;5076696;28;20085;-67
2023/05/18 05:07:43;;;;;;;6.78;4.03;;;;;;;;;;5094690;28;20047;-68
2023/05/18 05:10:10;;;;;;;7.68;4.07;;;;;;;;;;5094265;28;20089;-68
2023/05/18 05:12:37;;;;;;;9.40;3.13;;;;;;;;;;5094577;28;20063;-68
2023/05/18 05:15:03;;;;;;;8.90;3.53;;;;;;;;;;5093975;28;20119;-68
2023/05/18 05:17:30;;;;;;;6.55;3.10;;;;;;;;;;5094000;28;20038;-68
2023/05/18 05:19:56;;;;;;;5.05;3.00;;;;;;;;;;5096069;27;20360;-67
2023/05/18 05:22:22;;;;;;;5.60;3.25;;;;;;;;;;5091239;28;20147;-68
2023/05/18 05:24:48;;;;;;;6.72;3.28;;;;;;;;;;5065063;28;20059;-68
2023/05/18 05:27:14;;;;;;;9.70;4.63;;;;;;;;;;5082040;28;20087;-68
2023/05/18 05:29:41;;;;;;;8.43;2.83;;;;;;;;;;5098353;28;20429;-68
2023/05/18 05:32:08;;;;;;;6.85;2.75;;;;;;;;;;5095836;28;20050;-68
2023/05/18 05:34:34;;;;;;;7.25;4.03;;;;;;;;;;5093759;28;20093;-69
2023/05/18 05:37:00;;;;;;;6.20;3.25;;;;;;;;;;5104779;27;20477;-67
2023/05/18 05:39:26;;;;;;;7.85;3.65;;;;;;;;;;5100045;27;20108;-67
2023/05/18 05:41:53;;;;;;;5.25;2.88;;;;;;;;;;5096090;28;20088;-68
2023/05/18 05:44:19;;;;;;;6.43;2.55;;;;;;;;;;5098743;28;20044;-68
2023/05/18 05:46:46;;;;;;;5.53;2.90;;;;;;;;;;5076896;28;20046;-68
2023/05/18 05:49:12;;;;;;;6.35;4.13;;;;;;;;;;5100013;28;20043;-68
2023/05/18 05:51:38;;;;;;;6.25;3.10;;;;;;;;;;5099213;28;20071;-68
2023/05/18 05:54:04;;;;;;;10.43;2.40;;;;;;;;;;5097442;27;20500;-68
2023/05/18 05:56:30;;;;;;;7.00;2.65;;;;;;;;;;5096784;28;20043;-69
2023/05/18 05:58:57;;;;;;;8.98;2.60;;;;;;;;;;5091957;28;20047;-68
2023/05/18 06:01:23;;;;;;;5.07;2.80;;;;;;;;;;5096219;28;20358;-68
2023/05/18 06:03:50;;;;;;;7.53;2.67;;;;;;;;;;5092959;28;20055;-68
2023/05/18 06:06:16;;;;;;;5.75;2.55;;;;;;;;;;5104072;27;20135;-68
2023/05/18 06:08:43;;;;;;;6.35;2.53;;;;;;;;;;5098649;28;20054;-68
2023/05/18 06:11:09;;;;;;;5.40;2.38;;;;;;;;;;5094082;28;20032;-68
2023/05/18 06:13:36;;;;;;;8.18;2.63;;;;;;;;;;5100283;27;20035;-68
2023/05/18 06:16:02;;;;;;;5.78;2.25;;;;;;;;;;5086556;28;20079;-68
2023/05/18 06:18:28;;;;;;;6.30;2.40;;;;;;;;;;5105432;27;20201;-68
2023/05/18 06:20:55;;;;;;;8.50;3.63;;;;;;;;;;5095171;28;20079;-68
2023/05/18 06:23:22;;;;;;;4.82;2.33;;;;;;;;;;5095572;28;20060;-67
2023/05/18 06:25:49;;;;;;;9.85;3.13;;;;;;;;;;5093414;28;20103;-68
2023/05/18 06:28:15;;;;;;;5.13;2.67;;;;;;;;;;5090292;28;20044;-67
2023/05/18 06:30:41;;;;;;;8.07;2.97;;;;;;;;;;5094015;28;20038;-67
2023/05/18 06:33:07;;;;;;;4.30;2.20;;;;;;;;;;5097459;28;20040;-68
2023/05/18 06:35:33;;;;;;;3.25;1.98;;;;;;;;;;5101643;28;20059;-67
2023/05/18 06:37:59;;;;;;;10.20;2.55;;;;;;;;;;5083072;28;20131;-67
2023/05/18 06:40:26;;;;;;;5.78;2.63;;;;;;;;;;5093924;28;20417;-68
2023/05/18 06:42:52;;;;;;;5.18;2.22;;;;;;;;;;5092019;28;20490;-68
2023/05/18 06:45:18;;;;;;;7.95;2.85;;;;;;;;;;5092993;28;20055;-68
2023/05/18 06:47:45;;;;;;;7.18;2.80;;;;;;;;;;5093203;28;20036;-68
2023/05/18 06:50:11;;;;;;;6.03;2.33;;;;;;;;;;5096153;28;20104;-69
2023/05/18 06:52:37;;;;;;;5.78;2.88;;;;;;;;;;5101671;28;20038;-67
2023/05/18 06:55:04;;;;;;;6.53;2.55;;;;;;;;;;5095736;28;20032;-69
2023/05/18 06:57:30;;;;;;;4.35;1.88;;;;;;;;;;5067933;28;20070;-68
2023/05/18 06:59:57;;;;;;;7.07;2.33;;;;;;;;;;5097241;28;20082;-67
2023/05/18 07:02:23;;;;;;;6.30;2.25;;;;;;;;;;5076326;28;20082;-68
2023/05/18 07:04:49;;;;;;;6.88;2.45;;;;;;;;;;5102801;28;20497;-67
2023/05/18 07:07:15;;;;;;;5.63;3.03;;;;;;;;;;5090683;28;20052;-68
2023/05/18 07:09:44;;;;;;;6.93;2.58;;;;;;;;;;5101238;28;20048;-67
2023/05/18 07:12:11;;;;;;;5.07;1.85;;;;;;;;;;5101531;28;20058;-68
2023/05/18 07:14:37;;;;;;;6.05;2.22;;;;;;;;;;5099178;28;20040;-68
2023/05/18 07:17:05;;;;;;;4.07;1.98;;;;;;;;;;5093339;28;20093;-67
2023/05/18 07:19:32;;;;;;;11.85;3.88;;;;;;;;;;5099357;28;20051;-68
2023/05/18 07:21:58;;;;;;;8.25;2.78;;;;;;;;;;5094381;28;20525;-67
2023/05/18 07:24:25;;;;;;;7.13;2.53;;;;;;;;;;5101172;28;20040;-67
2023/05/18 07:26:51;;;;;;;6.80;2.60;;;;;;;;;;5092176;28;20162;-68
2023/05/18 07:29:17;;;;;;;5.50;2.42;;;;;;;;;;5092879;27;20040;-68
2023/05/18 07:31:43;;;;;;;5.20;2.67;;;;;;;;;;5092814;28;20421;-67
2023/05/18 07:34:10;;;;;;;7.82;2.95;;;;;;;;;;5086632;28;20073;-67
2023/05/18 07:36:36;;;;;;;9.25;2.55;;;;;;;;;;5085546;28;20259;-67
2023/05/18 07:39:02;;;;;;;7.30;2.60;;;;;;;;;;5084857;28;20583;-67
2023/05/18 07:41:30;;;;;;;9.68;3.38;;;;;;;;;;5090859;28;21086;-67
2023/05/18 07:43:56;;;;;;;8.55;2.47;;;;;;;;;;5097765;28;20047;-68
2023/05/18 07:46:22;;;;;;;4.30;1.95;;;;;;;;;;5092006;28;20036;-67
2023/05/18 07:48:48;;;;;;;7.13;2.10;;;;;;;;;;5090591;28;20039;-68
2023/05/18 07:51:15;;;;;;;6.70;2.22;;;;;;;;;;5093913;28;20077;-67
2023/05/18 07:53:41;;;;;;;6.68;2.55;;;;;;;;;;5093100;28;20043;-68
2023/05/18 07:56:08;;;;;;;8.02;2.60;;;;;;;;;;5104565;28;20035;-66
2023/05/18 07:58:35;;;;;;;8.00;2.58;;;;;;;;;;5104947;28;20048;-67
2023/05/18 08:01:01;;;;;;;5.72;2.20;;;;;;;;;;5097940;28;20401;-67
2023/05/18 08:03:27;;;;;;;6.45;2.42;;;;;;;;;;5100162;28;20043;-67
2023/05/18 08:05:53;;;;;;;8.25;2.58;;;;;;;;;;5096039;28;20032;-67
2023/05/18 08:08:20;;;;;;;8.00;2.53;;;;;;;;;;5104346;28;20067;-67
2023/05/18 08:10:46;;;;;;;4.50;2.10;;;;;;;;;;5086216;28;20044;-67
2023/05/18 08:13:12;;;;;;;7.78;2.85;;;;;;;;;;5092059;28;20044;-67
2023/05/18 08:15:40;;;;;;;4.82;2.45;;;;;;;;;;5086413;28;20097;-67
2023/05/18 08:18:06;;;;;;;5.43;2.45;;;;;;;;;;5095116;28;20047;-67
2023/05/18 08:20:32;;;;;;;11.10;3.58;;;;;;;;;;5093271;28;20449;-67
2023/05/18 08:22:58;;;;;;;6.10;2.78;;;;;;;;;;5096410;28;20142;-67
2023/05/18 08:25:24;;;;;;;5.40;2.70;;;;;;;;;;5104515;27;20036;-67
2023/05/18 08:27:50;;;;;;;4.32;2.30;;;;;;;;;;5097859;28;20046;-67
2023/05/18 08:30:20;;;;;;;9.93;2.90;;;;;;;;;;5099747;28;20112;-67
2023/05/18 08:32:47;;;;;;;5.82;2.35;;;;;;;;;;5093487;28;20104;-67
2023/05/18 08:35:13;;;;;;;6.82;2.95;;;;;;;;;;5091648;28;20315;-67
2023/05/18 08:37:39;;;;;;;6.50;2.90;;;;;;;;;;5094584;28;20129;-67
2023/05/18 08:40:10;;;;;;;5.63;2.85;;;;;;;;;;5090202;28;20127;-67
2023/05/18 08:42:42;;;;;;;5.20;2.72;;;;;;;;;;5100994;27;20261;-67
2023/05/18 08:45:15;;;;;;;6.13;3.40;;;;;;;;;;5101120;27;20031;-67
2023/05/18 08:47:41;;;;;;;8.32;3.20;;;;;;;;;;5098159;27;20123;-67
2023/05/18 08:50:12;;;;;;;6.97;2.83;;;;;;;;;;5092911;28;20036;-67
2023/05/18 08:52:40;;;;;;;5.60;2.47;;;;;;;;;;5097584;28;20036;-67
2023/05/18 08:55:07;;;;;;;6.72;3.33;;;;;;;;;;5087216;28;20261;-67
2023/05/18 08:57:36;;;;;;;7.75;2.95;;;;;;;;;;5097170;28;20032;-67
2023/05/18 09:00:06;;;;;;;7.85;2.92;;;;;;;;;;5091044;28;20128;-67
2023/05/18 09:02:33;;;;;;;7.45;3.50;;;;;;;;;;5079415;28;20409;-67
2023/05/18 09:04:59;;;;;;;10.07;3.70;;;;;;;;;;5098529;28;20370;-67
2023/05/18 09:07:26;;;;;;;7.63;3.20;;;;;;;;;;5103870;28;20075;-67
2023/05/18 09:09:54;;;;;;;5.53;3.53;;;;;;;;;;5087098;28;21312;-67
2023/05/18 09:12:23;;;;;;;8.40;4.30;;;;;;;;;;5093650;28;20450;-64
2023/05/18 09:14:50;;;;;;;5.93;3.38;;;;;;;;;;5091971;28;20055;-65
2023/05/18 09:17:16;;;;;;;6.22;3.45;;;;;;;;;;5099567;28;20482;-65
2023/05/18 09:19:43;;;;;;;5.03;2.60;;;;;;;;;;5090445;28;20044;-64
2023/05/18 09:22:09;;;;;;;5.32;2.97;;;;;;;;;;5090121;28;20051;-64
2023/05/18 09:24:36;;;;;;;6.75;3.80;;;;;;;;;;5087559;28;20147;-64
2023/05/18 09:27:04;;;;;;;4.85;2.85;;;;;;;;;;5099900;28;20036;-65
2023/05/18 09:29:30;;;;;;;6.60;2.88;;;;;;;;;;5091322;28;20093;-64
2023/05/18 09:31:56;;;;;;;7.53;2.65;;;;;;;;;;5092723;28;20080;-64
2023/05/18 09:34:23;;;;;;;7.20;2.83;;;;;;;;;;5097233;28;20032;-64
2023/05/18 09:36:51;;;;;;;6.20;3.00;;;;;;;;;;5092213;28;20048;-64
2023/05/18 09:39:18;;;;;;;5.35;2.60;;;;;;;;;;5094759;28;20051;-64
2023/05/18 09:41:44;;;;;;;7.65;3.03;;;;;;;;;;5090906;28;20042;-64
2023/05/18 09:44:11;;;;;;;8.95;3.20;;;;;;;;;;5097554;28;20054;-64
2023/05/18 09:46:38;;;;;;;6.88;3.13;;;;;;;;;;5101439;28;20047;-65
2023/05/18 09:49:05;;;;;;;7.63;3.38;;;13.20;99.50;;;;;;5103441;28;20114;-64
2023/05/18 09:51:38;;;;;;;4.55;2.42;;;12.80;99.90;;;;;;5099236;28;20028;-65
2023/05/18 09:54:07;;;;;;;9.57;3.50;;;12.70;99.90;;;;;;5094301;28;20520;-64
2023/05/18 09:56:37;;;;;;;6.50;3.15;;;12.80;99.90;;;;;;5088798;28;20520;-64
2023/05/18 09:59:15;;;;;;;8.50;3.85;;;12.70;99.90;;;;;;5090709;28;20184;-64
2023/05/18 10:02:01;;;;;;;7.63;3.20;;;12.80;99.90;;;;;;5093309;28;20077;-65
2023/05/18 10:04:39;;;;;;;6.90;3.17;;;12.80;99.90;;;;;;5095808;28;20217;-64
2023/05/18 10:07:11;;;;;;;4.65;2.70;;;12.70;99.90;;;;;;5102201;28;20047;-64
2023/05/18 10:09:40;;;;;;;6.18;2.95;;;12.70;99.90;;;;;;5092289;28;20461;-65
2023/05/18 10:12:18;;;;;;;9.00;3.17;;;12.70;99.90;;;;;;5103952;28;20045;-65
2023/05/18 10:14:45;;;;;;;13.57;3.67;;;12.70;99.90;;;;;;5101994;28;20115;-64
2023/05/18 10:17:12;;;;;;;9.20;3.60;;;12.70;99.90;;;;;;5101324;28;20093;-64
2023/05/18 10:19:40;;;;;;;8.43;2.80;;;12.70;99.90;;;;;;5108782;28;20105;-65
2023/05/18 10:22:07;;;;;;;7.07;3.63;;;12.70;99.90;;;;;;5101881;28;20058;-64
2023/05/18 10:24:37;;;;;;;4.72;3.50;;;12.70;99.90;;;;;;5103997;28;20040;-65
2023/05/18 10:27:07;;;;;;;6.32;3.08;;;12.70;99.90;;;;;;5108300;28;20044;-65
2023/05/18 10:29:36;;;;;;;6.93;3.13;;;12.70;99.90;;;;;;5107783;28;20507;-65
2023/05/18 10:32:10;;;;;;;12.63;3.20;;;12.70;99.90;;;;;;5102045;28;20132;-65
2023/05/18 10:34:37;;;;;;;9.07;3.53;;;12.70;99.70;;;;;;5107805;28;20630;-65
2023/05/18 10:37:05;;;;;;;6.60;3.22;;;12.70;99.70;;;;;;5095525;28;20079;-65
2023/05/18 10:39:33;;;;;;;8.20;3.28;;;;;;;;;;5093992;27;20387;-65
2023/05/18 10:42:00;;;;;;;8.70;3.25;;;;;;;;;;5091555;28;20441;-66
2023/05/18 10:44:26;;;;;;;8.95;2.72;;;;;;;;;;5093555;28;20122;-65
2023/05/18 10:46:53;;;;;;;9.23;3.63;;;;;;;;;;5101820;28;20492;-65
2023/05/18 10:49:24;;;;;;;6.57;2.95;;;;;;;;;;5089460;27;20075;-65
2023/05/18 10:51:53;;;;;;;8.88;3.75;;;;;;;;;;5095908;28;20039;-65
2023/05/18 10:54:22;;;;;;;7.30;3.00;;;;;;;;;;5088027;28;20111;-65
2023/05/18 10:56:50;;;;;;;7.00;3.20;;;;;;;;;;5095576;28;20131;-65
2023/05/18 10:59:17;;;;;;;5.78;2.47;;;;;;;;;;5091507;28;20253;-65
2023/05/18 11:01:47;;;;;;;8.90;2.55;;;;;;;;;;5088771;28;20402;-65
2023/05/18 11:04:13;;;;;;;5.68;2.88;;;;;;;;;;5091364;28;20471;-65
2023/05/18 11:06:40;;;;;;;4.63;2.60;;;;;;;;;;5096126;28;20072;-65
2023/05/18 11:09:06;;;;;;;6.55;2.83;;;;;;;;;;5095179;28;20035;-65
2023/05/18 11:11:55;;;;;;;5.45;3.13;;;;;;;;;;5088746;28;20047;-65
2023/05/18 11:14:31;;;;;;;13.15;3.25;;;;;;;;;;5095498;28;20032;-65
2023/05/18 11:17:18;;;;;;;6.95;3.30;;;;;;;;;;5099120;28;20583;-65
2023/05/18 11:20:03;;;;;;;10.52;3.75;;;;;;;;;;5090009;28;20048;-65
2023/05/18 11:22:44;;;;;;;6.53;3.58;;;;;;;;;;5094767;28;20063;-65
2023/05/18 11:25:33;;;;;;;5.05;2.78;;;12.70;99.80;;;;;;5096699;28;20487;-65
2023/05/18 11:28:04;;;;;;;9.45;3.63;;;13.80;99.90;;;;;;5089317;28;20571;-65
2023/05/18 11:30:44;;;;;;;6.85;2.95;;;;;;;;;;5095319;28;20044;-64
2023/05/18 11:33:11;;;;;;;7.50;4.15;;;;;;;;;;5089403;28;20063;-64
2023/05/18 11:35:57;;;;;;;8.57;3.08;;;13.90;99.60;;;;;;5098543;28;20109;-64
2023/05/18 11:38:44;;;;;;;8.48;3.42;;;14.10;98.40;;;;;;5089309;28;20401;-65
2023/05/18 11:41:31;;;;;;;7.40;2.80;;;14.00;98.80;;;;;;5099726;28;20035;-64
2023/05/18 11:44:18;;;;;;;8.40;3.38;;;14.10;99.40;;;;;;5094712;28;20138;-64
2023/05/18 11:46:57;;;;;;;6.97;3.67;;;14.20;99.20;;;;;;5095405;28;20131;-64
2023/05/18 11:49:29;;;;;;;6.13;2.97;;;14.30;98.90;;;;;;5090132;27;20043;-65
2023/05/18 11:51:59;;;;;;;5.78;3.10;;;14.30;98.40;;;;;;5096664;28;20516;-65
2023/05/18 11:54:26;;;;;;;6.40;3.42;;;14.30;98.40;;;;;;5091890;28;20043;-65
2023/05/18 11:56:52;;;;;;;7.07;3.08;;;14.30;98.30;;;;;;5088346;28;20048;-65
2023/05/18 11:59:32;;;;;;;7.05;3.63;;;14.30;98.20;;;;;;5088176;28;20275;-65
2023/05/18 12:02:00;;;;;;;5.97;3.00;;;14.30;97.80;;;;;;5093526;28;20051;-65
2023/05/18 12:04:27;;;;;;;7.63;3.08;;;14.30;98.00;;;;;;5084795;28;20327;-65
2023/05/18 12:06:54;;;;;;;11.93;3.85;;;14.30;98.10;;;;;;5088097;28;20481;-65
2023/05/18 12:09:19;;;;;;;6.60;3.50;;;14.30;98.10;;;;;;5086759;28;20038;-65
2023/05/18 12:11:45;;;;;;;8.02;3.40;;;14.20;97.90;;;;;;5085899;28;20336;-65
2023/05/18 12:14:12;;;;;;;4.95;3.17;;;14.20;98.00;;;;;;5089960;28;20051;-65
2023/05/18 12:16:42;;;;;;;7.10;2.75;;;14.20;98.10;;;;;;5084304;28;20078;-64
2023/05/18 12:19:08;;;;;;;5.80;2.72;;;14.10;97.90;;;;;;5092790;28;20397;-64
2023/05/18 12:21:35;;;;;;;7.50;2.75;;;14.10;98.10;;;;;;5084627;28;20074;-64
2023/05/18 12:24:04;;;;;;;6.88;3.13;;;14.00;97.80;;;;;;5089474;28;20051;-64
2023/05/18 12:26:30;;;;;;;8.48;2.83;;;13.90;97.80;;;;;;5083195;28;20458;-64
2023/05/18 12:28:58;;;;;;;8.40;3.13;;;13.90;97.90;;;;;;5092684;28;20265;-65
2023/05/18 12:31:25;;;;;;;5.47;2.53;;;13.90;98.00;;;;;;5084527;28;20083;-64
2023/05/18 12:33:53;;;;;;;5.22;2.42;;;13.80;98.20;;;;;;5083829;28;20472;-64
2023/05/18 12:36:19;;;;;;;5.80;2.70;;;13.80;98.30;;;;;;5083588;28;20040;-64
2023/05/18 12:38:50;;;;;;;4.80;2.40;;;13.80;98.60;;;;;;5089938;28;20109;-65
2023/05/18 12:41:25;;;;;;;7.57;3.03;;;13.90;98.80;;;;;;5086270;28;20496;-64
2023/05/18 12:43:53;;;;;;;11.23;3.00;;;13.90;98.80;;;;;;5084722;28;20051;-64
2023/05/18 12:46:23;;;;;;;5.35;2.75;;;13.90;98.90;;;;;;5088262;28;20143;-64
2023/05/18 12:49:00;;;;;;;7.00;3.13;;;14.00;98.90;;;;;;5091461;28;20074;-65
2023/05/18 12:51:34;;;;;;;8.50;3.40;;;14.00;98.80;;;;;;5095132;28;20043;-65
2023/05/18 12:54:04;;;;;;;4.80;2.42;;;13.90;98.50;;;;;;5094651;28;20023;-65
2023/05/18 12:56:51;;;;;;;5.32;2.70;;;13.90;98.90;;;;;;5092309;28;20108;-65
2023/05/18 12:59:18;;;;;;;7.03;3.15;;;14.00;99.00;;;;;;5091088;28;20040;-65
2023/05/18 13:01:44;;;;;;;5.88;2.63;;;14.00;98.90;;;;;;5086035;28;20044;-65
2023/05/18 13:04:11;;;;;;;10.00;3.03;;;14.00;98.90;;;;;;5091622;28;20097;-65
2023/05/18 13:06:38;;;;;;;8.50;3.10;;;14.00;98.80;;;;;;5092672;28;20689;-65
2023/05/18 13:09:07;;;;;;;9.07;3.13;;;14.00;98.80;;;;;;5093324;28;20509;-65
2023/05/18 13:11:33;;;;;;;7.75;3.00;;;14.00;98.70;;;;;;5093746;28;20433;-65
2023/05/18 13:14:04;;;;;;;5.63;2.60;;;13.90;98.70;;;;;;5093659;28;20047;-66
2023/05/18 13:16:31;;;;;;;6.43;2.70;;;14.00;98.90;;;;;;5091440;28;20135;-65
2023/05/18 13:19:05;;;;;;;5.10;2.60;;;14.00;99.00;;;;;;5088122;28;20051;-66
2023/05/18 13:21:32;;;;;;;7.45;2.30;;;14.00;98.80;;;;;;5085759;28;20577;-65
2023/05/18 13:23:59;;;;;;;6.57;3.15;;;14.00;98.90;;;;;;5087350;28;20115;-65
2023/05/18 13:26:25;;;;;;;5.88;3.53;;;14.00;98.90;;;;;;5087772;28;20123;-65
2023/05/18 13:28:54;;;;;;;5.20;3.20;;;14.00;98.90;;;;;;5081822;28;20140;-65
2023/05/18 13:31:21;;;;;;;11.02;3.70;;;14.10;99.00;;;;;;5095552;28;20052;-65
2023/05/18 13:33:48;;;;;;;4.28;2.95;;;14.10;99.00;;;;;;5083272;28;20722;-65
2023/05/18 13:36:15;;;;;;;8.43;3.78;;;14.10;99.10;;;;;;5087028;28;20047;-65
2023/05/18 13:38:41;;;;;;;8.43;3.30;;;14.10;99.10;;;;;;5093905;28;20522;-66
2023/05/18 13:41:10;;;;;;;6.68;3.42;;;14.10;99.00;;;;;;5088194;28;20119;-65
2023/05/18 13:43:37;;;;;;;7.55;3.50;;;14.10;98.90;;;;;;5088971;28;20119;-64
2023/05/18 13:46:03;;;;;;;6.40;3.03;;;14.20;99.20;;;;;;5097470;28;20497;-64
2023/05/18 13:48:29;;;;;;;7.88;3.80;;;14.20;99.20;;;;;;5087546;28;20234;-64
2023/05/18 13:50:55;;;;;;;8.80;3.15;;;14.20;99.10;;;;;;5089345;28;20127;-64
2023/05/18 13:53:22;;;;;;;7.35;3.38;;;14.20;99.10;;;;;;5090095;28;20437;-64
2023/05/18 13:55:48;;;;;;;12.80;3.53;;;14.30;99.10;;;;;;5093758;28;20490;-64
2023/05/18 13:58:14;;;;;;;6.00;3.72;;;14.30;98.90;;;;;;5090427;28;20122;-64
2023/05/18 14:00:40;;;;;;;4.70;3.45;;;14.30;98.90;;;;;;5093842;28;20551;-64
2023/05/18 14:03:06;;;;;;;5.40;2.80;;;14.30;98.90;;;;;;5090213;28;20036;-64
2023/05/18 14:05:32;;;;;;;6.15;2.47;;;14.20;98.80;;;;;;5094744;28;20128;-64
2023/05/18 14:07:58;;;;;;;12.82;4.47;;;14.20;98.90;;;;;;5087002;28;20035;-64
2023/05/18 14:10:24;;;;;;;7.35;3.00;;;14.20;98.90;;;;;;5087262;28;20036;-64
2023/05/18 14:12:50;;;;;;;6.28;3.38;;;14.30;99.00;;;;;;5097856;28;20028;-64
2023/05/18 14:15:15;;;;;;;8.30;2.95;;;14.30;99.10;;;;;;5094751;28;20048;-64